Baltimore/Washington International Thurgood Marshal Airport
KBWI : now visible

Airfield :











YOU CAN JOIN US ON...

 
LOGIN :

Register | Disclaimer

   EN    FR    IT 

 









Legend :    VFR   Marginal VFR   IFR   Intensive IFR   Very Intensive IFR
Visi :
Ceiling :
>= 8 km
>= 3000ft
5 to 8 km
1000 to 3000 ft
1500m to 5 km
500 to 1000 ft
800 to 1500m
200 to 500 ft
< 800m
< 200 ft
Symbols :   Thunderstorms  Fog  Heavy snow  Heavy precipitations  Wind > 20 kt






- Airport Elevation : 146 ft
- IATA code : BWI


KBWI - Baltimore/Washington International Thurgood Marshal

CURRENT METAR :
  • 250354Z 23003KT 10SM FEW250 22/17 A2986 RMK AO2 SLP109 T02170167

EXPIRED METARs :
  • 250254Z 22004KT 10SM FEW250 23/17 A2986 RMK AO2 SLP110 T02280167 51017
  • 250154Z 20004KT 10SM CLR 24/17 A2985 RMK AO2 SLP106 T02440172
  • 250054Z 17004KT 10SM FEW250 25/16 A2982 RMK AO2 SLP097 T02500161
  • 242354Z 15005KT 10SM FEW060 SCT250 27/14 A2981 RMK AO2 SLP092 T02670144 10294 20267 58004

TAF KBWI
Valid from the 25 at 03:00 until the 26 at 06:00 UTC


250254Z 2503/2606 00000KT P6SM FEW060 SCT200
FM251400 18004KT P6SM SCT250
FM260300 00000KT P6SM SCT070 BKN150
KZDC FIR / North America



MET'MAP, your aeronautical weather chart ! - Copyright ORBIFLY December 2007 - Disclaimer

ORBIFLY MET'MAP TEAM :

Programming & Development : Alexandra Zaïnal
Original concept : Baudouin d'Aumeries
Technical & hardware support : Manuel Goepfert
Assistance : Marc-Olivier Méhu




SOURCES & CREDITS :

   NOAA       Earth
Advisory